Aeroporto :
LOGIN :

Iscrizione | Disclaimer

   EN    FR    IT 

 










Sommario :    VFR   VFR Marginale   IFR   IFR Intensivo   IFR Molto Intensivo
Visibilità : 
Base nubi : 
>= 8 km
>= 3000ft
5 / 8 km
1000 / 3000 ft
1500m / 5 km
500 / 1000 ft
800 / 1500m
200 / 500 ft
< 800m
< 200 ft
Simboli :   Temporali  Nebbia  Neve Forte  Precipitazioni Forti  Vento > 20 kt
SIGMETs :   Varie  Temporali  Ghiacco  Turbolenza  Onda orograficha  Ceneri Vulcaniche







- Altitudine del aeroporto : 622 ft
- Codice IATA : BRS
- Carte del aeroporto


EGGD - Bristol Int.

ULTIMO METAR :
  • 191620Z 24012KT 5000 2000W RA BR FEW002 BKN006 17/17 Q1008

METARs OBSOLETI :
  • 191550Z 21008KT 170V230 5000 2000W -RA BR BKN002 18/17 Q1008 RERA
  • 191520Z 19009KT 7000 3000W -RA FEW002 BKN004 18/17 Q1008
  • 191450Z 20009KT 7000 3000W -RA FEW003 BKN005 18/18 Q1009
  • 191420Z 21010KT 9000 FEW003 BKN006 18/18 Q1009
  • 191350Z 20010KT 170V230 8000 -DZ FEW002 BKN004 18/18 Q1008

TAF AMD TAF EGGD
Valido dal 19 a 16 ore il 20 a 12 ore UTC


191633Z 1916/2012 20010KT 6000 BKN006
TEMPO 1916/1921 4000 RA SHRA BKN003
PROB30
TEMPO 1916/1921 26008KT 1200 BR BKN001
BECMG 1921/1923 9999 SCT015
TEMPO 1921/2007 6000 RA SHRA BKN008
PROB40
TEMPO 1921/1924 4000 +RA +SHRA BKN004
PROB30
TEMPO 2007/2012 8000 SHRA
BECMG 2008/2011 27012KT
ATIS : +44 1275 473 666
Nessun NOTAM noto per questo aeroporto.
2 SIGMETs conosciuti per la FIR London (EGTT) :
 
Temporali affogati
EGTT SIGMET 04 VALID 191600/191900 EGRR
EGTT LONDON FIR EMBD TS OBS WI N5402 W00101 - N5101 W00127 - N5020 W00417 - N5132 W00406 - N5200 W00303 - N5354 W00244 - N5402 W00101 TOP FL340 MOV ENE 20KT NC=
Temporali affogati
EGTT SIGMET 03 VALID 191345/191600 EGRR
EGTT LONDON FIR EMBD TS FCST WI N5109 W00500 - N5148 W00221 - N5105 W00145 - N5100 W00340 - N5030 W00425 - N5024 W00615 - N5109 W00500 TOP FL280 MOV NE 25KT NC=



MetMap, La meteo Aeronautica in un colpo d'occhio ! - Copyright ORBIFLY Dicembre 2007 - Disclaimer

ORBIFLY MET'MAP TEAM :

Programmazione e sviluppo : Alexandra Zaïnal
Concezione e sviluppo : Baudouin d'Aumeries
Co-Programmazione e sviluppo : Marc-Olivier Méhu
Supporto tecnico e logistico : Manuel Goepfert
Aiuto per la traduzione : Arnaldo La Scala

Contatto : metmap@orbifly.com




FONTI E CREDITI :

   NOAA